Time;durP1;ratioP1;P1;durP2;ratioP2;P2;SDS_P1;SDS_P2;PMS_P1;PMS_P2;Temp;Humidity;BMP_temperature;BMP_pressure;BME280_temperature;BME280_humidity;BME280_pressure;Samples;Min_cycle;Max_cycle;Signal;HPM_P1;HPM_P2
2022/04/16 00:02:00;;;;;;;20.95;14.50;;;;;;;8.58;89.35;98936.00;5042802;28;20072;-40
2022/04/16 00:04:29;;;;;;;23.33;15.13;;;;;;;8.62;89.37;98939.31;5045071;28;20033;-40
2022/04/16 00:06:56;;;;;;;23.67;15.48;;;;;;;8.62;89.13;98939.31;5040885;28;20045;-44
2022/04/16 00:09:22;;;;;;;21.27;14.68;;;;;;;8.51;89.03;98924.16;5039434;28;20053;-40
2022/04/16 00:11:48;;;;;;;21.50;15.02;;;;;;;8.58;88.86;98933.41;5050533;28;20041;-40
2022/04/16 00:14:15;;;;;;;20.73;14.07;;;;;;;8.47;88.98;98923.47;5046936;28;20550;-40
2022/04/16 00:16:41;;;;;;;21.42;14.48;;;;;;;8.57;88.81;98934.31;5060131;28;20571;-39
2022/04/16 00:19:08;;;;;;;22.25;15.20;;;;;;;8.56;88.76;98935.19;5044884;28;20505;-40
2022/04/16 00:21:35;;;;;;;21.08;15.10;;;;;;;8.56;88.94;98939.53;5042096;28;20049;-39
2022/04/16 00:24:02;;;;;;;19.92;13.85;;;;;;;8.48;89.12;98926.84;5047059;28;20041;-39
2022/04/16 00:26:28;;;;;;;20.73;14.05;;;;;;;8.55;89.13;98933.50;5046664;28;20064;-40
2022/04/16 00:28:54;;;;;;;19.13;14.18;;;;;;;8.55;89.20;98938.69;5068828;28;20107;-41
2022/04/16 00:31:20;;;;;;;21.35;14.40;;;;;;;8.52;89.29;98936.22;5046414;28;20048;-41
2022/04/16 00:33:47;;;;;;;23.23;15.05;;;;;;;8.44;89.25;98930.47;5039964;28;20424;-40
2022/04/16 00:36:15;;;;;;;32.10;19.75;;;;;;;8.40;89.44;98923.72;5044153;28;20094;-39
2022/04/16 00:38:42;;;;;;;24.60;17.35;;;;;;;8.47;89.92;98940.75;5075241;28;20110;-39
2022/04/16 00:41:08;;;;;;;25.45;17.80;;;;;;;8.41;90.01;98928.88;5039432;28;20638;-39
2022/04/16 00:43:34;;;;;;;24.85;16.38;;;;;;;8.46;90.78;98941.63;5038390;28;20049;-41
2022/04/16 00:46:00;;;;;;;21.77;14.50;;;;;;;8.46;91.18;98950.25;5037118;28;20047;-39
2022/04/16 00:48:26;;;;;;;23.63;15.85;;;;;;;8.42;90.95;98945.25;5045489;28;20037;-40
2022/04/16 00:50:53;;;;;;;22.05;14.90;;;;;;;8.43;91.07;98942.56;5059307;28;20037;-39
2022/04/16 00:53:19;;;;;;;23.08;14.98;;;;;;;8.43;91.27;98939.13;5039981;28;20565;-39
2022/04/16 00:55:45;;;;;;;21.02;13.68;;;;;;;8.40;91.14;98944.44;5068805;28;20052;-40
2022/04/16 00:58:11;;;;;;;20.95;14.35;;;;;;;8.29;91.25;98918.06;5037902;28;20048;-40
2022/04/16 01:00:37;;;;;;;19.08;13.88;;;;;;;8.27;91.19;98925.06;5044233;28;20106;-39
2022/04/16 01:03:03;;;;;;;19.45;13.57;;;;;;;8.25;91.20;98925.13;5069391;28;20064;-40
2022/04/16 01:05:29;;;;;;;16.70;12.13;;;;;;;8.30;91.42;98943.94;5036795;28;20453;-40
2022/04/16 01:07:58;;;;;;;16.77;12.27;;;;;;;8.24;90.97;98941.56;5057419;28;20098;-39
2022/04/16 01:10:26;;;;;;;15.27;10.18;;;;;;;8.19;91.40;98942.63;5041055;28;20044;-40
2022/04/16 01:12:52;;;;;;;13.77;10.05;;;;;;;8.16;92.16;98945.34;5046014;28;20045;-39
2022/04/16 01:15:20;;;;;;;12.07;8.95;;;;;;;8.09;92.86;98939.53;5042614;28;20152;-39
2022/04/16 01:17:50;;;;;;;9.43;7.10;;;;;;;8.02;93.37;98946.66;5045717;28;20044;-39
2022/04/16 01:20:16;;;;;;;8.88;6.53;;;;;;;7.94;93.76;98946.09;5046022;28;20033;-39
2022/04/16 01:22:43;;;;;;;6.38;5.10;;;;;;;7.84;93.52;98951.66;5047841;28;20527;-39
2022/04/16 01:25:09;;;;;;;6.85;4.95;;;;;;;7.65;93.48;98936.75;5043103;28;20102;-39
2022/04/16 01:27:35;;;;;;;7.72;4.88;;;;;;;7.68;93.33;98950.50;5045790;28;20479;-39
2022/04/16 01:30:03;;;;;;;5.68;4.20;;;;;;;7.64;93.76;98960.13;5044235;28;20098;-40
2022/04/16 01:32:32;;;;;;;7.35;4.43;;;;;;;7.61;93.76;98958.44;5046666;28;20041;-39
2022/04/16 01:35:00;;;;;;;5.13;3.97;;;;;;;7.55;93.95;98961.25;5049234;28;20494;-39
2022/04/16 01:37:31;;;;;;;5.55;4.30;;;;;;;7.39;93.33;98946.28;5070662;28;20531;-40
2022/04/16 01:39:58;;;;;;;4.82;3.78;;;;;;;7.33;93.10;98949.91;5050896;28;20036;-40
2022/04/16 01:42:24;;;;;;;4.47;3.60;;;;;;;7.36;93.38;98960.19;5080910;28;20098;-40
2022/04/16 01:44:51;;;;;;;4.80;3.47;;;;;;;7.30;93.19;98975.03;5028611;28;20037;-39
2022/04/16 01:47:17;;;;;;;4.55;3.70;;;;;;;7.24;92.00;98973.50;5046639;28;20147;-40
2022/04/16 01:49:43;;;;;;;4.68;3.17;;;;;;;7.20;91.49;98972.75;5057467;28;20611;-39
2022/04/16 01:52:09;;;;;;;6.95;3.47;;;;;;;7.18;90.86;98977.13;5043700;28;20107;-41
2022/04/16 01:54:35;;;;;;;4.22;3.50;;;;;;;7.12;90.18;98982.47;5054916;28;20093;-39
2022/04/16 01:57:02;;;;;;;3.95;3.05;;;;;;;7.08;89.25;98974.88;5055572;28;20079;-38
2022/04/16 01:59:29;;;;;;;6.32;3.30;;;;;;;7.06;88.50;98979.25;5029160;28;20082;-40
2022/04/16 02:01:56;;;;;;;5.25;3.10;;;;;;;7.04;88.04;98981.03;5050100;28;20188;-45
2022/04/16 02:04:22;;;;;;;6.47;3.47;;;;;;;7.01;87.87;98981.16;5046627;28;20145;-39
2022/04/16 02:06:51;;;;;;;3.65;3.08;;;;;;;6.95;86.98;98978.75;5041721;28;20194;-39
2022/04/16 02:09:17;;;;;;;4.07;3.00;;;;;;;6.93;86.86;98986.53;5042903;28;20048;-44
2022/04/16 02:11:43;;;;;;;4.47;2.90;;;;;;;6.75;86.42;98962.09;5042290;28;20808;-39
2022/04/16 02:14:09;;;;;;;4.93;2.83;;;;;;;6.84;85.83;98976.50;5057515;28;20044;-39
2022/04/16 02:16:34;;;;;;;4.32;2.70;;;;;;;6.76;85.95;98989.63;5047307;28;20037;-40
2022/04/16 02:19:00;;;;;;;3.95;2.65;;;;;;;6.68;85.09;98995.94;5071169;28;20090;-40
2022/04/16 02:21:27;;;;;;;3.42;2.47;;;;;;;6.65;85.23;99001.16;5040751;28;20048;-46
2022/04/16 02:23:53;;;;;;;3.38;2.63;;;;;;;6.61;84.70;98995.25;5048119;28;20052;-39
2022/04/16 02:26:22;;;;;;;4.00;2.70;;;;;;;6.55;84.53;98995.44;5046704;28;20045;-39
2022/04/16 02:28:48;;;;;;;2.42;2.08;;;;;;;6.50;84.06;99001.63;5041830;28;20037;-41
2022/04/16 02:31:14;;;;;;;2.80;2.35;;;;;;;6.45;83.94;99013.81;5042775;28;20440;-40
2022/04/16 02:33:41;;;;;;;3.00;2.40;;;;;;;6.37;83.06;99012.31;5041617;28;20075;-40
2022/04/16 02:36:07;;;;;;;3.05;2.45;;;;;;;6.36;83.45;99014.94;5078432;28;20045;-39
2022/04/16 02:38:34;;;;;;;2.42;2.20;;;;;;;6.32;82.90;99009.00;5069223;28;20040;-40
2022/04/16 02:41:00;;;;;;;2.75;2.03;;;;;;;6.25;82.09;99010.06;5053753;28;20126;-39
2022/04/16 02:43:25;;;;;;;4.97;2.10;;;;;;;6.23;81.84;99017.00;5049979;28;20095;-39
2022/04/16 02:48:35;;;;;;;3.67;2.00;;;;;;;6.16;81.69;99028.38;5049692;28;20442;-39
2022/04/16 02:51:02;;;;;;;2.30;1.80;;;;;;;6.11;81.38;99026.81;5049495;28;20059;-41
2022/04/16 02:53:30;;;;;;;2.13;1.80;;;;;;;6.10;82.14;99022.53;5053523;28;20586;-39
2022/04/16 02:55:55;;;;;;;1.98;1.73;;;;;;;5.99;81.76;99019.41;5047497;28;20036;-40
2022/04/16 02:58:22;;;;;;;1.98;1.63;;;;;;;6.03;81.75;99021.84;5048592;28;20797;-40
2022/04/16 03:00:48;;;;;;;2.25;1.80;;;;;;;5.96;81.38;99022.91;5045449;28;20056;-39
2022/04/16 03:03:15;;;;;;;1.73;1.60;;;;;;;5.87;81.04;99010.22;5042777;28;20040;-40
2022/04/16 03:05:41;;;;;;;3.38;1.85;;;;;;;5.96;80.96;99030.66;5049386;28;20041;-42
2022/04/16 03:08:07;;;;;;;2.03;1.42;;;;;;;5.97;80.73;99042.66;5047195;28;20040;-39
2022/04/16 03:10:36;;;;;;;1.92;1.52;;;;;;;5.95;80.47;99024.66;5047619;28;20057;-39
2022/04/16 03:13:02;;;;;;;1.60;1.50;;;;;;;5.74;80.55;99003.69;5046130;28;20401;-40
2022/04/16 03:18:12;;;;;;;1.38;1.20;;;;;;;5.86;79.63;99052.38;5046609;28;20036;-40
2022/04/16 03:20:39;;;;;;;1.40;1.10;;;;;;;5.70;79.50;99026.13;5047904;28;20041;-41
2022/04/16 03:23:05;;;;;;;1.85;1.20;;;;;;;5.71;79.49;99042.44;5049089;28;20463;-41
2022/04/16 03:25:31;;;;;;;1.38;1.10;;;;;;;5.73;79.28;99046.69;5064683;28;20037;-39
2022/04/16 03:27:57;;;;;;;2.95;1.40;;;;;;;5.75;79.09;99056.97;5037349;28;20048;-39
2022/04/16 03:30:24;;;;;;;1.38;1.15;;;;;;;5.78;79.25;99065.47;5045724;28;20060;-41
2022/04/16 03:32:50;;;;;;;0.90;0.82;;;;;;;5.74;79.06;99061.28;5045183;28;20087;-41
2022/04/16 03:35:19;;;;;;;1.25;1.05;;;;;;;5.78;78.48;99064.63;5046788;28;20036;-39
2022/04/16 03:37:45;;;;;;;1.40;1.20;;;;;;;5.78;78.34;99062.88;5048432;28;20040;-39
2022/04/16 03:40:12;;;;;;;1.35;1.17;;;;;;;5.79;78.53;99068.91;5044845;28;20037;-39
2022/04/16 03:42:49;;;;;;;1.45;1.00;;;;;;;5.79;78.55;99063.72;5040415;28;20096;-39
2022/04/16 03:45:21;;;;;;;1.80;1.17;;;;;;;5.77;78.15;99056.03;5048287;28;20045;-39
2022/04/16 03:47:50;;;;;;;1.10;0.88;;;;;;;5.53;77.74;99031.72;5044721;28;20201;-40
2022/04/16 03:50:17;;;;;;;1.45;1.10;;;;;;;5.71;77.62;99061.34;5020881;28;20044;-39
2022/04/16 03:52:44;;;;;;;1.52;1.23;;;;;;;5.71;78.34;99065.63;5038856;28;20150;-40
2022/04/16 04:00:47;;;;;;;1.17;0.80;;;;;;;5.61;78.63;99066.75;5043287;28;20053;-40
2022/04/16 04:03:14;;;;;;;1.02;0.68;;;;;;;5.53;78.63;99054.91;5032435;28;20850;-39
2022/04/16 04:05:40;;;;;;;1.92;0.80;;;;;;;5.60;78.73;99070.22;5039213;28;20095;-40
2022/04/16 04:08:07;;;;;;;1.10;0.88;;;;;;;5.59;78.40;99073.69;5058681;28;20417;-41
2022/04/16 04:10:34;;;;;;;0.77;0.65;;;;;;;5.40;78.56;99040.59;5044487;28;20041;-39
2022/04/16 04:13:00;;;;;;;1.02;0.80;;;;;;;5.61;78.46;99074.47;5043492;28;20049;-40
2022/04/16 04:15:27;;;;;;;0.80;0.70;;;;;;;5.61;78.36;99074.47;5039217;28;20040;-39
2022/04/16 04:17:54;;;;;;;1.38;0.80;;;;;;;5.55;78.34;99070.31;5044361;28;20055;-40
2022/04/16 04:20:19;;;;;;;1.02;0.93;;;;;;;5.67;78.29;99094.97;5043438;28;20056;-39
2022/04/16 04:22:45;;;;;;;0.75;0.70;;;;;;;5.53;77.81;99072.09;5043413;28;20048;-40
2022/04/16 04:25:11;;;;;;;0.70;0.70;;;;;;;5.56;77.92;99082.34;5043191;28;20080;-40
2022/04/16 04:27:37;;;;;;;0.90;0.70;;;;;;;5.54;77.61;99091.84;5043957;28;20071;-39
2022/04/16 04:30:04;;;;;;;0.70;0.65;;;;;;;5.45;77.41;99092.03;5041609;28;20060;-41
2022/04/16 04:32:30;;;;;;;0.93;0.60;;;;;;;5.58;77.60;99106.38;5038880;28;20436;-40
2022/04/16 04:34:56;;;;;;;1.75;0.70;;;;;;;5.59;77.19;99108.06;5043409;28;20513;-39
2022/04/16 04:37:22;;;;;;;1.27;0.80;;;;;;;5.57;77.10;99112.41;5044976;28;20045;-40
2022/04/16 04:39:49;;;;;;;1.25;0.70;;;;;;;5.57;77.35;99106.38;5044196;28;20041;-40
2022/04/16 04:42:30;;;;;;;0.88;0.63;;;;;;;5.61;76.88;99118.31;5044317;28;20048;-42
2022/04/16 04:44:56;;;;;;;1.30;0.63;;;;;;;5.61;76.75;99116.59;5045829;28;20036;-40
2022/04/16 04:47:22;;;;;;;0.95;0.70;;;;;;;5.60;76.61;99121.81;5056556;28;20055;-40
2022/04/16 04:49:49;;;;;;;0.73;0.52;;;;;;;5.59;76.16;99122.69;5051029;28;20044;-41
2022/04/16 04:52:29;;;;;;;1.02;0.70;;;;;;;5.63;75.62;99126.88;5052951;28;20464;-40
2022/04/16 04:54:58;;;;;;;1.65;0.70;;;;;;;5.44;76.21;99100.69;5044636;28;20044;-40
2022/04/16 04:57:24;;;;;;;;;;;;;;;5.64;75.80;99138.88;5049317;28;20463;-39
2022/04/16 04:59:50;;;;;;;0.98;0.60;;;;;;;5.63;75.36;99144.94;5047197;28;19922;-40
2022/04/16 05:02:16;;;;;;;0.68;0.60;;;;;;;5.61;74.85;99139.78;5046792;28;20833;-40
2022/04/16 05:04:42;;;;;;;0.70;0.60;;;;;;;5.57;74.93;99132.16;5044747;28;20051;-40
2022/04/16 05:07:09;;;;;;;1.02;0.73;;;;;;;5.55;74.89;99142.50;5048423;28;20775;-40
2022/04/16 05:09:36;;;;;;;1.13;0.70;;;;;;;5.56;74.62;99139.06;5082647;28;20044;-41
2022/04/16 05:12:02;;;;;;;0.50;0.50;;;;;;;5.61;74.80;99142.38;5047246;28;20071;-39
2022/04/16 05:14:29;;;;;;;0.70;0.60;;;;;;;5.66;75.10;99142.25;5051884;28;20045;-40
2022/04/16 05:16:55;;;;;;;1.38;0.57;;;;;;;5.69;74.65;99139.63;5057479;28;20040;-40
2022/04/16 05:19:20;;;;;;;0.80;0.68;;;;;;;5.70;74.34;99136.19;5051264;28;20075;-41
2022/04/16 05:21:46;;;;;;;1.20;0.55;;;;;;;5.75;74.58;99142.91;5048928;28;20888;-41
2022/04/16 05:24:12;;;;;;;3.63;0.80;;;;;;;5.78;74.73;99142.00;5050504;28;20040;-40
2022/04/16 05:26:38;;;;;;;1.45;0.75;;;;;;;5.81;74.48;99142.75;5046722;28;20472;-40
2022/04/16 05:29:05;;;;;;;1.20;0.60;;;;;;;5.83;74.32;99153.03;5047033;28;20033;-40
2022/04/16 05:31:31;;;;;;;1.45;0.60;;;;;;;5.84;74.19;99150.44;5080449;28;20068;-42
2022/04/16 05:36:42;;;;;;;2.15;0.70;;;;;;;5.92;73.87;99127.03;5049996;28;20409;-40
2022/04/16 05:39:07;;;;;;;1.13;0.70;;;;;;;5.97;73.93;99133.78;5048336;28;20064;-41
2022/04/16 05:41:33;;;;;;;1.70;0.65;;;;;;;6.02;73.84;99140.59;5048669;28;20036;-40
2022/04/16 05:44:00;;;;;;;4.07;1.23;;;;;;;6.07;74.02;99139.56;5045903;28;20065;-41
2022/04/16 05:46:25;;;;;;;2.00;0.80;;;;;;;6.13;73.71;99136.84;5049749;28;20040;-41
2022/04/16 05:48:51;;;;;;;1.30;0.77;;;;;;;6.14;73.85;99137.69;5080923;28;20436;-40
2022/04/16 05:51:18;;;;;;;1.30;0.73;;;;;;;6.18;73.88;99139.31;5044309;28;20060;-40
2022/04/16 05:53:45;;;;;;;1.60;0.77;;;;;;;6.17;73.50;99146.22;5052485;28;20090;-42
2022/04/16 05:56:11;;;;;;;1.67;0.80;;;;;;;6.19;73.19;99152.19;5053323;28;20086;-41
2022/04/16 05:58:37;;;;;;;1.95;0.77;;;;;;;6.16;73.49;99126.47;5050531;28;20044;-41
2022/04/16 06:01:04;;;;;;;1.48;0.80;;;;;;;6.30;73.46;99152.75;5050558;28;20040;-39
2022/04/16 06:03:30;;;;;;;1.13;0.73;;;;;;;6.28;72.92;99158.84;5085079;28;20428;-41
2022/04/16 06:05:59;;;;;;;1.67;1.05;;;;;;;6.14;72.55;99140.28;5055500;28;20040;-41
2022/04/16 06:08:24;;;;;;;1.98;1.08;;;;;;;6.22;72.98;99161.59;5049324;28;20566;-40
2022/04/16 06:10:50;;;;;;;1.67;0.90;;;;;;;6.21;72.82;99160.75;5049910;28;20044;-41
2022/04/16 06:13:16;;;;;;;1.48;0.98;;;;;;;6.19;72.57;99166.81;5054253;28;20128;-41
2022/04/16 06:15:42;;;;;;;2.40;0.98;;;;;;;6.04;72.53;99142.25;5069777;28;20040;-40
2022/04/16 06:18:08;;;;;;;2.53;1.00;;;;;;;6.17;72.46;99168.59;5069531;28;20049;-40
2022/04/16 06:20:35;;;;;;;2.78;1.00;;;;;;;6.12;72.59;99157.53;5064083;28;20550;-40
2022/04/16 06:23:02;;;;;;;2.38;1.27;;;;;;;6.04;72.41;99144.81;5039869;28;20037;-42
2022/04/16 06:25:28;;;;;;;1.55;0.90;;;;;;;6.16;72.01;99159.16;5040380;28;20040;-41
2022/04/16 06:27:54;;;;;;;2.47;0.90;;;;;;;6.15;71.72;99157.47;5045198;28;20111;-41
2022/04/16 06:30:20;;;;;;;2.00;1.25;;;;;;;6.17;72.04;99160.84;5046360;28;20052;-40
2022/04/16 06:32:46;;;;;;;3.05;1.50;;;;;;;6.19;72.25;99151.31;5044023;28;20087;-41
2022/04/16 06:35:12;;;;;;;2.33;0.90;;;;;;;6.19;72.00;99153.91;5033073;28;20036;-41
2022/04/16 06:37:41;;;;;;;2.30;1.10;;;;;;;6.21;70.97;99149.56;5039799;28;20049;-40
2022/04/16 06:40:07;;;;;;;1.25;1.10;;;;;;;6.25;71.49;99158.91;5043062;28;20543;-42
2022/04/16 06:42:33;;;;;;;1.10;1.00;;;;;;;6.29;70.90;99155.38;5040211;28;20052;-39
2022/04/16 06:44:58;;;;;;;1.35;0.90;;;;;;;6.32;71.09;99163.06;5046554;28;20029;-41
2022/04/16 06:47:24;;;;;;;1.52;1.00;;;;;;;6.34;71.09;99169.84;5031991;28;20417;-40
2022/04/16 06:49:50;;;;;;;3.30;1.05;;;;;;;6.36;70.86;99181.00;5048703;28;20044;-40
2022/04/16 06:52:19;;;;;;;1.83;0.90;;;;;;;6.38;70.81;99173.22;5048978;28;20534;-41
2022/04/16 06:54:46;;;;;;;5.30;1.17;;;;;;;6.22;70.64;99146.09;5047486;28;20416;-40
2022/04/16 06:57:12;;;;;;;1.80;1.00;;;;;;;6.39;70.11;99177.47;5047925;28;20041;-40
2022/04/16 06:59:38;;;;;;;1.80;0.90;;;;;;;6.33;70.08;99180.25;5047285;28;20130;-39
2022/04/16 07:02:09;;;;;;;3.28;1.42;;;;;;;6.30;69.81;99188.03;5007646;28;1190482;-41
2022/04/16 07:04:34;;;;;;;1.30;1.10;;;;;;;6.28;70.05;99195.00;5049597;28;20068;-41
2022/04/16 07:07:00;;;;;;;2.03;1.00;;;;;;;6.25;69.58;99193.31;5049738;28;20516;-39
2022/04/16 07:09:27;;;;;;;5.75;2.95;;;;;;;6.24;69.48;99195.94;5049944;28;20037;-40
2022/04/16 07:11:52;;;;;;;3.95;1.23;;;;;;;6.21;69.51;99203.75;5042543;28;20420;-41
2022/04/16 07:14:19;;;;;;;1.20;1.02;;;;;;;6.18;69.37;99207.25;5048705;28;20047;-41
2022/04/16 07:16:45;;;;;;;2.45;1.20;;;;;;;6.16;69.62;99219.38;5049247;28;20098;-41
2022/04/16 07:19:12;;;;;;;4.78;1.10;;;;;;;6.20;69.91;99218.41;5074362;28;20508;-40
2022/04/16 07:21:38;;;;;;;2.00;1.15;;;;;;;6.18;69.88;99221.88;5045386;28;20095;-41
2022/04/16 07:24:04;;;;;;;1.92;1.27;;;;;;;6.17;69.63;99240.88;5049126;28;20041;-41
2022/04/16 07:29:14;;;;;;;2.50;1.10;;;;;;;6.09;69.43;99242.75;5046368;28;20039;-39
2022/04/16 07:31:40;;;;;;;5.82;2.70;;;;;;;6.08;69.51;99248.78;5049661;28;20059;-40
2022/04/16 07:34:06;;;;;;;2.45;1.27;;;;;;;6.07;69.76;99247.13;5044158;28;20063;-41
2022/04/16 07:36:32;;;;;;;5.18;1.27;;;;;;;5.99;69.35;99249.00;5039174;28;20513;-41
2022/04/16 07:38:58;;;;;;;1.83;1.30;;;;;;;5.99;69.87;99262.78;5046356;28;20037;-40
2022/04/16 07:41:23;;;;;;;2.03;1.30;;;;;;;5.97;69.95;99263.69;5045499;28;20049;-41
2022/04/16 07:43:49;;;;;;;2.67;1.20;;;;;;;5.93;69.21;99261.19;5034831;28;20098;-41
2022/04/16 07:46:18;;;;;;;1.63;1.25;;;;;;;5.97;69.53;99264.53;5045395;28;20041;-41
2022/04/16 07:48:44;;;;;;;1.80;1.30;;;;;;;5.95;69.82;99258.56;5041692;28;20455;-41
2022/04/16 07:51:10;;;;;;;4.18;2.00;;;;;;;5.95;69.53;99264.59;5042720;28;20040;-41
2022/04/16 07:53:35;;;;;;;3.38;1.30;;;;;;;5.95;69.87;99266.31;5040964;28;20548;-42
2022/04/16 07:56:02;;;;;;;1.70;1.20;;;;;;;5.97;69.96;99268.88;5037622;28;20049;-41
2022/04/16 07:58:28;;;;;;;2.65;1.15;;;;;;;5.97;69.67;99269.69;5042624;28;20036;-42
2022/04/16 08:00:53;;;;;;;4.80;1.70;;;;;;;6.00;70.08;99269.63;5072950;28;20055;-40
2022/04/16 08:03:19;;;;;;;1.50;0.90;;;;;;;5.92;69.84;99266.34;5037974;28;20048;-40
2022/04/16 08:05:45;;;;;;;2.58;1.23;;;;;;;5.95;70.50;99277.47;5040767;28;20056;-41
2022/04/16 08:08:10;;;;;;;2.58;1.52;;;;;;;5.93;71.06;99286.97;5039026;28;20547;-42
2022/04/16 08:10:37;;;;;;;2.40;1.85;;;;;;;5.93;70.80;99275.81;5040265;28;20075;-41
2022/04/16 08:13:07;;;;;;;2.50;1.45;;;;;;;5.90;71.50;99271.56;5043127;28;20043;-41
2022/04/16 08:15:34;;;;;;;3.72;1.40;;;;;;;6.04;71.92;99283.31;5047104;28;20044;-42
2022/04/16 08:18:01;;;;;;;3.10;1.67;;;;;;;5.95;71.70;99272.31;5043073;28;20037;-42
2022/04/16 08:20:27;;;;;;;3.38;1.27;;;;;;;6.08;71.11;99283.19;5041430;28;20049;-43
2022/04/16 08:22:53;;;;;;;2.42;1.50;;;;;;;6.17;71.69;99292.47;5043017;28;20131;-42
2022/04/16 08:27:48;;;;;;;2.35;1.65;;;;;;;6.29;71.49;99297.34;5046546;28;20036;-42
2022/04/16 08:30:16;;;;;;;6.00;3.08;;;;;;;6.18;71.02;99278.66;5068270;28;20037;-39
2022/04/16 08:32:42;;;;;;;5.03;1.67;;;;;;;6.33;70.92;99294.66;5042331;28;20041;-40
2022/04/16 08:35:13;;;;;;;2.63;1.58;;;;;;;6.39;71.77;99296.25;5039674;28;20037;-43
2022/04/16 08:37:40;;;;;;;1.50;1.30;;;;;;;6.42;71.42;99293.59;5036475;28;20040;-38
2022/04/16 08:40:07;;;;;;;3.30;1.48;;;;;;;6.44;70.63;99289.22;5038330;28;20562;-40
2022/04/16 08:42:34;;;;;;;2.47;1.65;;;;;;;6.47;70.90;99296.06;5038170;28;20044;-41
2022/04/16 08:45:00;;;;;;;5.15;1.70;;;;;;;6.56;70.35;99294.09;5040355;28;20136;-39
2022/04/16 08:47:26;;;;;;;2.78;1.50;;;;;;;6.60;69.96;99279.38;5042983;28;20575;-41
2022/04/16 08:49:52;;;;;;;3.22;1.30;;;;;;;6.81;69.95;99289.16;5047139;28;20132;-39
2022/04/16 08:52:18;;;;;;;3.22;1.33;;;;;;;6.93;69.36;99299.19;5070710;28;20037;-40
2022/04/16 08:54:46;;;;;;;1.77;1.30;;;;;;;6.96;69.09;99312.03;5037994;28;20066;-41
2022/04/16 08:57:12;;;;;;;3.25;1.77;;;;;;;6.97;68.80;99312.88;5039636;28;20039;-41
2022/04/16 08:59:38;;;;;;;3.58;1.38;;;;;;;7.01;68.29;99319.69;5039023;28;20044;-41
2022/04/16 09:02:04;;;;;;;5.95;1.58;;;;;;;6.99;68.28;99322.31;5053461;28;20084;-45
2022/04/16 09:04:33;;;;;;;3.58;2.40;;;;;;;6.78;68.33;99295.28;5048524;28;20118;-44
2022/04/16 09:07:00;;;;;;;2.55;1.45;;;;;;;6.94;68.59;99326.75;5042928;28;20048;-43
2022/04/16 09:09:26;;;;;;;1.88;1.50;;;;;;;6.95;68.27;99335.34;5047859;28;20033;-44
2022/04/16 09:11:52;;;;;;;2.95;1.60;;;;;;;6.84;68.40;99327.00;5043150;28;20033;-54
2022/04/16 09:14:18;;;;;;;1.20;1.10;;;;;;;6.83;67.89;99333.91;5038295;28;20060;-42
2022/04/16 09:16:44;;;;;;;3.67;1.50;;;;;;;6.88;68.33;99329.47;5041358;28;20061;-43
2022/04/16 09:19:16;;;;;;;4.72;2.05;;;;;;;6.91;68.07;99326.00;5039141;28;20128;-45
2022/04/16 09:21:43;;;;;;;6.28;4.60;;;;;;;6.94;67.61;99331.06;5044465;28;20041;-42
2022/04/16 09:24:10;;;;;;;4.03;3.13;;;;;;;6.96;68.00;99322.38;5043876;28;20044;-43
2022/04/16 09:26:40;;;;;;;1.40;1.30;;;;;;;6.97;67.75;99330.97;5043629;28;20047;-42
2022/04/16 09:29:07;;;;;;;2.95;2.10;;;;;;;6.96;67.20;99335.28;5042050;28;20048;-41
2022/04/16 09:31:34;;;;;;;3.85;1.65;;;;;;;7.00;67.50;99336.94;5043003;28;20049;-43
2022/04/16 09:34:01;;;;;;;3.60;1.52;;;;;;;6.99;66.76;99331.78;5039203;28;20041;-42
2022/04/16 09:36:27;;;;;;;5.47;1.90;;;;;;;6.89;66.86;99328.59;5039789;28;20045;-42
2022/04/16 09:39:01;;;;;;;5.45;3.60;;;;;;;6.89;66.61;99338.09;5044560;28;20041;-42
2022/04/16 09:41:41;;;;;;;6.20;4.70;;;;;;;6.90;66.21;99342.38;5046106;28;20041;-42
2022/04/16 09:44:25;;;;;;;5.95;4.70;;;;;;;6.92;66.27;99341.44;5045616;28;20133;-42
2022/04/16 09:46:51;;;;;;;2.22;1.75;;;;;;;6.79;66.14;99317.66;5042653;28;20045;-43
2022/04/16 09:49:19;;;;;;;3.22;2.20;;;;;;;6.98;65.63;99350.75;5030261;28;20041;-42
2022/04/16 09:51:46;;;;;;;3.28;2.22;;;;;;;7.03;65.52;99354.94;5044703;28;20037;-42
2022/04/16 09:54:13;;;;;;;2.25;1.40;;;;;;;7.06;65.46;99354.88;5063805;28;20037;-42
2022/04/16 09:56:41;;;;;;;2.78;1.40;;;;;;;6.98;64.91;99356.78;5035739;28;20048;-43
2022/04/16 09:59:09;;;;;;;3.80;1.70;;;;;;;6.94;65.02;99357.75;5044165;28;20136;-42
2022/04/16 10:01:38;;;;;;;4.95;3.45;;;;;;;6.92;65.26;99367.28;5037004;28;20057;-42
2022/04/16 10:04:06;;;;;;;2.83;1.80;;;;;;;6.82;65.16;99363.22;5062831;28;20045;-42
2022/04/16 10:06:32;;;;;;;2.20;1.60;;;;;;;6.88;65.46;99375.13;5036656;28;20055;-42
2022/04/16 10:09:00;;;;;;;2.75;2.03;;;;;;;6.77;64.68;99365.91;5039245;28;20045;-42
2022/04/16 10:14:26;;;;;;;3.55;2.38;;;;;;;6.86;64.43;99385.50;5057982;28;20460;-43
2022/04/16 10:17:08;;;;;;;2.22;1.33;;;;;;;6.84;64.07;99381.28;5064136;28;20053;-42
2022/04/16 10:19:45;;;;;;;2.83;1.55;;;;;;;6.83;63.86;99388.19;5034766;28;20056;-42
2022/04/16 10:22:22;;;;;;;2.55;1.48;;;;;;;6.77;64.02;99391.75;5031183;28;20459;-42
2022/04/16 10:24:48;;;;;;;1.70;1.38;;;;;;;6.80;64.07;99383.91;5035478;28;20425;-44
2022/04/16 10:27:27;;;;;;;2.20;1.50;;;;;;;6.72;63.35;99367.75;5032222;28;20045;-41
2022/04/16 10:30:00;;;;;;;2.83;1.50;;;;;;;6.84;63.28;99392.47;5033684;28;20491;-43
2022/04/16 10:32:38;;;;;;;1.77;1.40;;;;;;;6.93;63.07;99396.53;5032867;28;20088;-43
2022/04/16 10:35:05;;;;;;;3.47;1.17;;;;;;;6.96;62.71;99396.50;5034945;28;20535;-43
2022/04/16 10:37:39;;;;;;;2.63;1.50;;;;;;;6.97;62.82;99396.44;5033096;28;20517;-43
2022/04/16 10:40:22;;;;;;;7.65;1.80;;;;;;;6.90;62.88;99392.31;5035944;28;20345;-42
2022/04/16 10:42:49;;;;;;;3.65;1.50;;;;;;;6.85;63.01;99404.50;5043600;28;20068;-44
2022/04/16 10:45:16;;;;;;;1.67;1.00;;;;;;;6.79;62.55;99397.75;5025871;28;20099;-41
2022/04/16 10:47:41;;;;;;;2.20;1.27;;;;;;;6.77;62.34;99409.84;5031056;28;20124;-42
2022/04/16 10:50:15;;;;;;;2.63;1.50;;;;;;;6.72;62.72;99406.50;5042855;28;20124;-42
2022/04/16 10:53:07;;;;;;;4.95;4.03;;;;;;;6.72;62.51;99408.25;5031648;28;20039;-42
2022/04/16 10:55:36;;;;;;;8.05;3.53;;;;;;;6.76;62.77;99412.44;5033821;28;20436;-42
2022/04/16 10:58:03;;;;;;;2.67;1.50;;;;;;;6.80;63.51;99414.91;5063274;28;20056;-41
2022/04/16 11:00:40;;;;;;;1.88;1.10;;;;;;;6.77;62.82;99420.16;5063634;28;20037;-42
2022/04/16 11:03:09;;;;;;;1.95;1.52;;;;;;;6.78;62.76;99426.19;5032083;28;20060;-42
2022/04/16 11:05:41;;;;;;;5.97;1.77;;;;;;;6.80;62.45;99437.34;5061677;28;20045;-42
2022/04/16 11:08:08;;;;;;;2.70;1.40;;;;;;;6.75;62.56;99432.25;5034179;28;20065;-45
2022/04/16 11:10:34;;;;;;;1.63;1.10;;;;;;;6.59;62.58;99419.75;5036643;28;20045;-42
2022/04/16 11:13:02;;;;;;;9.80;7.45;;;;;;;6.63;62.85;99421.38;5063098;28;20120;-42
2022/04/16 11:15:28;;;;;;;4.95;3.70;;;;;;;6.68;62.62;99441.06;5029586;28;20095;-43
2022/04/16 11:17:57;;;;;;;5.82;1.30;;;;;;;6.60;62.93;99436.91;5032410;28;20045;-43
2022/04/16 11:20:25;;;;;;;1.83;1.30;;;;;;;6.51;62.92;99409.59;5031582;28;20080;-42
2022/04/16 11:22:52;;;;;;;2.10;1.20;;;;;;;6.64;62.55;99428.25;5065154;28;20108;-41
2022/04/16 11:25:21;;;;;;;1.65;1.10;;;;;;;6.64;62.83;99442.00;5031337;28;20079;-42
2022/04/16 11:36:06;;;;;;;2.35;1.23;;;;;;;6.71;62.76;99461.63;5034743;28;20048;-43
2022/04/16 11:38:32;;;;;;;;;;;;;;;6.73;62.37;99469.38;5029932;28;20041;-42
2022/04/16 11:41:04;;;;;;;7.07;1.30;;;;;;;6.65;62.75;99463.50;5044587;28;20006;-42
2022/04/16 11:43:31;;;;;;;1.42;0.93;;;;;;;6.64;62.38;99473.00;5067841;28;20074;-44
2022/04/16 11:46:04;;;;;;;2.60;1.20;;;;;;;6.66;62.84;99481.56;5055150;28;20056;-42
2022/04/16 11:48:32;;;;;;;2.80;1.35;;;;;;;6.67;62.71;99472.94;5038418;28;20033;-44
2022/04/16 11:50:58;;;;;;;1.73;1.20;;;;;;;6.64;62.25;99478.19;5050947;28;20052;-44
2022/04/16 11:53:24;;;;;;;2.60;1.23;;;;;;;6.66;62.43;99473.81;5047804;28;20275;-44
2022/04/16 11:55:51;;;;;;;2.13;0.90;;;;;;;6.65;62.29;99476.41;5048750;28;20131;-43
2022/04/16 11:58:17;;;;;;;4.90;0.90;;;;;;;6.61;62.29;99488.56;5043723;28;20028;-45
2022/04/16 12:00:55;;;;;;;1.92;0.90;;;;;;;6.58;62.29;99496.38;5055929;28;20045;-42
2022/04/16 12:03:22;;;;;;;1.10;0.90;;;;;;;6.60;61.94;99496.34;5057657;28;20187;-44
2022/04/16 12:05:50;;;;;;;3.25;1.50;;;;;;;6.60;62.32;99489.44;5048092;28;20040;-43
2022/04/16 12:08:18;;;;;;;1.58;1.00;;;;;;;6.60;62.41;99507.50;5047538;28;20037;-42
2022/04/16 12:10:47;;;;;;;3.08;0.85;;;;;;;6.56;61.70;99513.63;5046384;28;20047;-45
2022/04/16 12:13:14;;;;;;;2.75;1.00;;;;;;;6.56;61.66;99511.06;5045336;28;20036;-45